Time;durP1;ratioP1;P1;durP2;ratioP2;P2;SDS_P1;SDS_P2;PMS_P1;PMS_P2;Temp;Humidity;BMP_temperature;BMP_pressure;BME280_temperature;BME280_humidity;BME280_pressure;Samples;Min_cycle;Max_cycle;Signal;HPM_P1;HPM_P2
2023/08/04 00:01:48;;;;;;;;;;;;;;;24.60;41.91;96355.94;4229747;27;5647;-70
2023/08/04 00:03:52;;;;;;;;;;;;;;;24.60;41.93;96355.94;4234460;28;5469;-70
2023/08/04 00:05:55;;;;;;;;;;;;;;;24.61;41.38;96354.84;4235729;28;5723;-70
2023/08/04 00:08:00;;;;;;;;;;;;;;;24.60;41.75;96351.34;4235634;28;5650;-70
2023/08/04 00:10:03;;;;;;;;;;;;;;;24.60;41.68;96339.72;4235436;28;5658;-70
2023/08/04 00:12:07;;;;;;;;;;;;;;;24.60;41.63;96348.63;4235505;28;5716;-70
2023/08/04 00:14:10;;;;;;;;;;;;;;;24.58;41.65;96350.84;4235505;27;5745;-70
2023/08/04 00:16:13;;;;;;;;;;;;;;;24.58;42.07;96341.94;4235236;28;5651;-70
2023/08/04 00:18:16;;;;;;;;;;;;;;;24.57;41.95;96343.81;4235518;28;5698;-70
2023/08/04 00:20:18;;;;;;;;;;;;;;;24.55;42.05;96348.69;4233698;28;5980;-70
2023/08/04 00:22:21;;;;;;;;;;;;;;;24.53;41.63;96342.78;4229268;28;6368;-70
2023/08/04 00:24:25;;;;;;;;;;;;;;;24.53;41.84;96350.09;4235639;28;5814;-70
2023/08/04 00:26:28;;;;;;;;;;;;;;;24.51;42.11;96349.59;4234747;28;5832;-70
2023/08/04 00:28:31;;;;;;;;;;;;;;;24.51;41.81;96352.28;4235599;27;5636;-70
2023/08/04 00:30:34;;;;;;;;;;;;;;;24.51;42.23;96357.69;4235090;28;5646;-71
2023/08/04 00:32:37;;;;;;;;;;;;;;;24.50;42.14;96351.50;4235235;28;5621;-70
2023/08/04 00:34:39;;;;;;;;;;;;;;;24.50;42.00;96350.69;4234473;28;5729;-70
2023/08/04 00:36:44;;;;;;;;;;;;;;;24.49;41.75;96355.28;4234915;28;7785;-70
2023/08/04 00:38:46;;;;;;;;;;;;;;;24.48;42.25;96358.28;4225392;28;5869;-70
2023/08/04 00:40:51;;;;;;;;;;;;;;;24.47;41.84;96348.56;4225328;28;5810;-70
2023/08/04 00:42:53;;;;;;;;;;;;;;;24.44;41.81;96351.84;4227780;28;5750;-70
2023/08/04 00:44:56;;;;;;;;;;;;;;;24.43;41.98;96355.63;4232903;28;5621;-70
2023/08/04 00:47:00;;;;;;;;;;;;;;;24.41;41.64;96349.72;4234965;28;5870;-70
2023/08/04 00:49:04;;;;;;;;;;;;;;;24.38;41.66;96354.63;4235103;28;5635;-70
2023/08/04 00:51:07;;;;;;;;;;;;;;;24.37;42.15;96357.63;4227026;28;6505;-70
2023/08/04 00:53:12;;;;;;;;;;;;;;;24.37;42.08;96361.13;4235217;27;5777;-70
2023/08/04 00:55:16;;;;;;;;;;;;;;;24.36;41.72;96356.81;4234664;27;5649;-70
2023/08/04 00:57:20;;;;;;;;;;;;;;;24.33;41.77;96357.38;4235189;27;5741;-70
2023/08/04 00:59:23;;;;;;;;;;;;;;;24.28;41.92;96359.34;4234710;27;6443;-70
2023/08/04 01:01:26;;;;;;;;;;;;;;;24.28;41.84;96362.84;4223515;28;5753;-70
2023/08/04 01:03:29;;;;;;;;;;;;;;;24.26;41.87;96362.34;4229584;28;5646;-70
2023/08/04 01:05:42;;;;;;;;;;;;;;;24.25;42.24;96352.63;4234647;28;5702;-70
2023/08/04 01:07:53;;;;;;;;;;;;;;;24.22;42.35;96355.09;4234966;27;6343;-70
2023/08/04 01:10:09;;;;;;;;;;;;;;;24.19;42.35;96351.06;4234290;27;5734;-70
2023/08/04 01:12:16;;;;;;;;;;;;;;;24.19;42.21;96351.06;4234812;27;5221;-70
2023/08/04 01:14:21;;;;;;;;;;;;;;;24.18;42.22;96348.66;4234727;28;5671;-70
2023/08/04 01:16:24;;;;;;;;;;;;;;;24.17;42.46;96352.47;4233640;28;5853;-70
2023/08/04 01:18:27;;;;;;;;;;;;;;;24.16;42.50;96350.84;4234450;27;5613;-71
2023/08/04 01:20:29;;;;;;;;;;;;;;;24.16;42.28;96356.25;4234597;28;5642;-70
2023/08/04 01:22:34;;;;;;;;;;;;;;;24.15;42.69;96358.16;4234639;28;5654;-70
2023/08/04 01:24:37;;;;;;;;;;;;;;;24.14;42.49;96353.84;4234908;28;5625;-70
2023/08/04 01:26:45;;;;;;;;;;;;;;;24.11;42.76;96357.91;4233681;27;5666;-70
2023/08/04 01:28:50;;;;;;;;;;;;;;;24.05;42.60;96350.19;4234780;28;5692;-70
2023/08/04 01:30:56;;;;;;;;;;;;;;;24.06;42.81;96351.78;4234544;28;5675;-70
2023/08/04 01:32:59;;;;;;;;;;;;;;;24.05;42.18;96361.78;4234565;28;5634;-70
2023/08/04 01:35:03;;;;;;;;;;;;;;;24.05;42.58;96355.59;4234509;28;5669;-71
2023/08/04 01:37:06;;;;;;;;;;;;;;;24.06;42.70;96365.28;4226254;28;5649;-68
2023/08/04 01:39:10;;;;;;;;;;;;;;;24.06;42.26;96362.59;4234230;28;5658;-69
2023/08/04 01:41:12;;;;;;;;;;;;;;;24.07;42.20;96366.91;4234612;27;5654;-69
2023/08/04 01:43:15;;;;;;;;;;;;;;;24.05;42.59;96361.00;4226291;27;5663;-69
2023/08/04 01:45:19;;;;;;;;;;;;;;;24.04;42.49;96364.78;4234294;28;5629;-69
2023/08/04 01:47:22;;;;;;;;;;;;;;;24.03;42.57;96363.97;4234292;28;5650;-69
2023/08/04 01:49:24;;;;;;;;;;;;;;;24.02;43.00;96366.97;4234366;28;6398;-70
2023/08/04 01:51:27;;;;;;;;;;;;;;;23.99;42.69;96362.94;4234188;28;5639;-69
2023/08/04 01:53:30;;;;;;;;;;;;;;;24.00;43.12;96363.72;4234193;28;5649;-69
2023/08/04 01:55:34;;;;;;;;;;;;;;;24.00;43.14;96361.84;4234033;28;5788;-69
2023/08/04 01:57:37;;;;;;;;;;;;;;;23.99;43.34;96362.13;4234155;28;7679;-69
2023/08/04 01:59:40;;;;;;;;;;;;;;;23.99;42.98;96365.63;4225609;28;5745;-69
2023/08/04 02:01:42;;;;;;;;;;;;;;;23.97;42.93;96359.72;4234356;28;7020;-69
2023/08/04 02:03:45;;;;;;;;;;;;;;;23.98;42.97;96374.03;4234337;28;5770;-69
2023/08/04 02:05:48;;;;;;;;;;;;;;;23.96;42.93;96365.41;4232287;28;5608;-69
2023/08/04 02:07:51;;;;;;;;;;;;;;;23.96;43.37;96378.91;4226760;28;5643;-70
2023/08/04 02:09:54;;;;;;;;;;;;;;;23.95;43.37;96370.00;4234120;28;5753;-69
2023/08/04 02:11:58;;;;;;;;;;;;;;;23.95;43.42;96372.72;4224389;28;5672;-69
2023/08/04 02:14:00;;;;;;;;;;;;;;;23.96;43.22;96376.22;4231519;28;5745;-70
2023/08/04 02:16:04;;;;;;;;;;;;;;;23.96;43.46;96368.91;4233449;28;5659;-69
2023/08/04 02:18:06;;;;;;;;;;;;;;;23.94;43.44;96375.69;4225596;28;6176;-69
2023/08/04 02:20:10;;;;;;;;;;;;;;;23.90;43.24;96364.69;4233442;28;5647;-69
2023/08/04 02:22:13;;;;;;;;;;;;;;;23.91;43.53;96374.38;4233595;28;7692;-69
2023/08/04 02:24:16;;;;;;;;;;;;;;;23.89;43.03;96376.56;4233733;27;5737;-69
2023/08/04 02:26:19;;;;;;;;;;;;;;;23.88;43.19;96371.44;4233382;28;5092;-69
2023/08/04 02:28:23;;;;;;;;;;;;;;;23.89;43.35;96373.03;4234947;28;5700;-69
2023/08/04 02:30:25;;;;;;;;;;;;;;;23.91;42.95;96370.88;4233732;28;5683;-69
2023/08/04 02:32:28;;;;;;;;;;;;;;;23.90;43.14;96371.94;4223541;28;5646;-69
2023/08/04 02:34:31;;;;;;;;;;;;;;;23.91;43.29;96370.88;4229555;28;5665;-69
2023/08/04 02:36:34;;;;;;;;;;;;;;;23.91;43.04;96385.19;4237033;28;5733;-69
2023/08/04 02:38:36;;;;;;;;;;;;;;;23.91;42.94;96382.50;4237100;28;5825;-69
2023/08/04 02:40:39;;;;;;;;;;;;;;;23.89;43.40;96379.25;4236723;28;5748;-69
2023/08/04 02:42:42;;;;;;;;;;;;;;;23.89;43.03;96384.66;4237054;28;5728;-69
2023/08/04 02:44:46;;;;;;;;;;;;;;;23.85;43.35;96380.94;4237302;27;5904;-69
2023/08/04 02:46:49;;;;;;;;;;;;;;;23.83;43.70;96380.41;4236707;27;5657;-70
2023/08/04 02:48:52;;;;;;;;;;;;;;;23.83;43.39;96385.81;4237422;28;5430;-70
2023/08/04 02:51:01;;;;;;;;;;;;;;;23.81;43.60;96378.00;4230123;28;5727;-70
2023/08/04 02:53:03;;;;;;;;;;;;;;;23.82;43.22;96384.22;4233078;28;5668;-70
2023/08/04 02:55:07;;;;;;;;;;;;;;;23.79;43.38;96385.59;4224931;28;5665;-69
2023/08/04 02:57:10;;;;;;;;;;;;;;;23.76;43.17;96385.34;4222948;28;5662;-69
2023/08/04 02:59:13;;;;;;;;;;;;;;;23.74;43.43;96393.72;4226091;27;5658;-70
2023/08/04 03:01:17;;;;;;;;;;;;;;;23.76;43.63;96382.63;4223900;27;5674;-70
2023/08/04 03:03:20;;;;;;;;;;;;;;;23.77;43.61;96387.75;4230359;28;5717;-70
2023/08/04 03:05:23;;;;;;;;;;;;;;;23.78;43.69;96384.00;4236300;28;5641;-70
2023/08/04 03:07:26;;;;;;;;;;;;;;;23.76;43.75;96388.84;4234022;28;5725;-70
2023/08/04 03:09:29;;;;;;;;;;;;;;;23.76;43.60;96390.75;4231601;28;5653;-70
2023/08/04 03:11:32;;;;;;;;;;;;;;;23.75;43.60;96394.53;4236466;28;6355;-70
2023/08/04 03:13:35;;;;;;;;;;;;;;;23.76;43.77;96390.75;4236915;28;5646;-70
2023/08/04 03:15:37;;;;;;;;;;;;;;;23.77;43.58;96397.75;4236482;28;5742;-70
2023/08/04 03:17:41;;;;;;;;;;;;;;;23.76;43.40;96396.94;4236618;28;5634;-70
2023/08/04 03:19:44;;;;;;;;;;;;;;;23.76;43.59;96385.34;4232085;27;5766;-70
2023/08/04 03:21:47;;;;;;;;;;;;;;;23.76;43.55;96393.44;4225599;28;5725;-69
2023/08/04 03:23:50;;;;;;;;;;;;;;;23.76;43.35;96390.75;4236210;28;5734;-70
2023/08/04 03:25:52;;;;;;;;;;;;;;;23.75;43.48;96398.03;4228094;27;5626;-69
2023/08/04 03:27:55;;;;;;;;;;;;;;;23.74;43.42;96403.72;4236546;28;5925;-69
2023/08/04 03:29:58;;;;;;;;;;;;;;;23.72;43.28;96395.09;4236238;28;5844;-69
2023/08/04 03:32:01;;;;;;;;;;;;;;;23.73;42.99;96394.81;4236123;27;5646;-70
2023/08/04 03:34:05;;;;;;;;;;;;;;;23.75;43.34;96406.13;4236337;28;5695;-70
2023/08/04 03:36:08;;;;;;;;;;;;;;;23.76;43.14;96407.72;4228249;28;5842;-69
2023/08/04 03:38:12;;;;;;;;;;;;;;;23.76;43.37;96402.34;4236307;28;5819;-70
2023/08/04 03:40:14;;;;;;;;;;;;;;;23.73;43.42;96405.63;4235418;28;5744;-69
2023/08/04 03:42:17;;;;;;;;;;;;;;;23.71;43.43;96399.72;4234979;28;7728;-69
2023/08/04 03:44:20;;;;;;;;;;;;;;;23.69;43.75;96409.19;4236036;27;5751;-69
2023/08/04 03:46:22;;;;;;;;;;;;;;;23.68;43.41;96408.38;4235591;27;5618;-69
2023/08/04 03:48:25;;;;;;;;;;;;;;;23.69;43.32;96406.50;4235890;28;5904;-70
2023/08/04 03:50:30;;;;;;;;;;;;;;;23.67;43.78;96401.38;4236224;27;5678;-69
2023/08/04 03:52:33;;;;;;;;;;;;;;;23.64;43.66;96407.31;4235809;27;5671;-69
2023/08/04 03:54:36;;;;;;;;;;;;;;;23.62;43.52;96409.50;4235967;28;5858;-70
2023/08/04 03:56:39;;;;;;;;;;;;;;;23.61;43.50;96413.31;4232407;28;5767;-69
2023/08/04 03:58:41;;;;;;;;;;;;;;;23.60;43.15;96409.00;4233734;28;5662;-70
2023/08/04 04:00:44;;;;;;;;;;;;;;;23.58;43.51;96408.47;4235764;28;5765;-70
2023/08/04 04:02:48;;;;;;;;;;;;;;;23.57;43.37;96404.16;4235972;28;5682;-70
2023/08/04 04:04:50;;;;;;;;;;;;;;;23.59;43.17;96412.78;4235783;28;5705;-70
2023/08/04 04:06:54;;;;;;;;;;;;;;;23.58;43.21;96411.19;4235704;28;5654;-69
2023/08/04 04:08:57;;;;;;;;;;;;;;;23.55;43.11;96406.31;4235667;27;5762;-69
2023/08/04 04:11:00;;;;;;;;;;;;;;;23.52;43.58;96406.88;4235470;28;5659;-69
2023/08/04 04:13:23;;;;;;;;;;;;;;;23.51;43.67;96405.28;4229324;28;5763;-69
2023/08/04 04:15:26;;;;;;;;;;;;;;;23.51;43.31;96407.97;4233139;28;5795;-70
2023/08/04 04:17:29;;;;;;;;;;;;;;;23.49;43.24;96402.88;4230251;28;5686;-70
2023/08/04 04:19:32;;;;;;;;;;;;;;;23.50;43.39;96403.66;4221452;28;5907;-70
2023/08/04 04:21:35;;;;;;;;;;;;;;;23.48;43.23;96411.25;4218510;28;5733;-69
2023/08/04 04:23:39;;;;;;;;;;;;;;;23.45;43.27;96412.63;4223160;28;5675;-70
2023/08/04 04:25:42;;;;;;;;;;;;;;;23.45;43.59;96409.13;4224624;28;5807;-69
2023/08/04 04:27:45;;;;;;;;;;;;;;;23.46;43.40;96416.13;4219561;28;5843;-69
2023/08/04 04:29:47;;;;;;;;;;;;;;;23.46;43.95;96419.63;4220374;28;5795;-70
2023/08/04 04:31:50;;;;;;;;;;;;;;;23.47;43.97;96421.22;4227989;28;5642;-69
2023/08/04 04:33:53;;;;;;;;;;;;;;;23.46;44.10;96416.94;4220437;28;5852;-69
2023/08/04 04:35:56;;;;;;;;;;;;;;;23.48;44.14;96417.44;4225773;28;5729;-69
2023/08/04 04:37:59;;;;;;;;;;;;;;;23.47;44.28;96418.53;4220536;28;5731;-69
2023/08/04 04:40:03;;;;;;;;;;;;;;;23.44;44.01;96416.41;4224638;28;5782;-69
2023/08/04 04:42:06;;;;;;;;;;;;;;;23.44;44.50;96412.88;4221507;28;5668;-69
2023/08/04 04:44:09;;;;;;;;;;;;;;;23.45;44.46;96428.00;4224214;28;5869;-69
2023/08/04 04:46:11;;;;;;;;;;;;;;;23.43;44.57;96420.16;4221330;28;5825;-69
2023/08/04 04:48:14;;;;;;;;;;;;;;;23.43;44.61;96422.06;4221886;28;5085;-69
2023/08/04 04:50:17;;;;;;;;;;;;;;;23.40;44.11;96436.94;4225659;27;5713;-69
2023/08/04 04:52:31;;;;;;;;;;;;;;;23.39;44.12;96439.91;4217833;28;5851;-69
2023/08/04 04:54:34;;;;;;;;;;;;;;;23.36;44.50;96435.91;4219661;28;5667;-69
2023/08/04 04:56:39;;;;;;;;;;;;;;;23.37;44.11;96425.91;4225385;28;5650;-69
2023/08/04 04:58:41;;;;;;;;;;;;;;;23.37;44.44;96420.53;4224178;28;5670;-69
2023/08/04 05:00:44;;;;;;;;;;;;;;;23.37;43.90;96423.22;4222674;28;6000;-70
2023/08/04 05:02:47;;;;;;;;;;;;;;;23.33;43.71;96431.09;4219163;28;5675;-69
2023/08/04 05:04:50;;;;;;;;;;;;;;;23.29;44.03;96426.50;4221321;28;5662;-69
2023/08/04 05:06:53;;;;;;;;;;;;;;;23.30;43.99;96433.50;4221270;28;5117;-70
2023/08/04 05:08:55;;;;;;;;;;;;;;;23.30;43.98;96431.63;4221632;28;5759;-69
2023/08/04 05:10:58;;;;;;;;;;;;;;;23.33;43.69;96446.44;4219745;27;5728;-69
2023/08/04 05:13:02;;;;;;;;;;;;;;;23.30;43.32;96444.31;4222764;28;6483;-69
2023/08/04 05:15:07;;;;;;;;;;;;;;;23.29;43.81;96434.59;4221732;28;5790;-69
2023/08/04 05:17:12;;;;;;;;;;;;;;;23.27;43.63;96442.19;4226086;28;5953;-69
2023/08/04 05:19:15;;;;;;;;;;;;;;;23.24;43.12;96443.56;4234683;28;7682;-70
2023/08/04 05:21:18;;;;;;;;;;;;;;;23.26;43.45;96432.47;4234713;28;5726;-69
2023/08/04 05:23:20;;;;;;;;;;;;;;;23.27;43.30;96439.47;4224286;28;5663;-70
2023/08/04 05:25:23;;;;;;;;;;;;;;;23.23;43.36;96431.97;4225712;28;5905;-69
2023/08/04 05:27:26;;;;;;;;;;;;;;;23.24;43.23;96438.97;4228389;28;5679;-70
2023/08/04 05:29:30;;;;;;;;;;;;;;;23.24;43.28;96428.19;4229464;28;5662;-69
2023/08/04 05:31:35;;;;;;;;;;;;;;;23.21;43.53;96436.81;4234227;28;5687;-69
2023/08/04 05:33:38;;;;;;;;;;;;;;;23.22;43.02;96433.06;4234422;28;5639;-70
2023/08/04 05:35:45;;;;;;;;;;;;;;;23.20;43.32;96421.72;4234386;28;5617;-70
2023/08/04 05:37:48;;;;;;;;;;;;;;;23.20;42.87;96420.91;4234635;27;5711;-70
2023/08/04 05:39:51;;;;;;;;;;;;;;;23.18;43.21;96417.72;4234581;28;5629;-69
2023/08/04 05:41:54;;;;;;;;;;;;;;;23.18;43.06;96420.41;4226227;28;5780;-70
2023/08/04 05:43:56;;;;;;;;;;;;;;;23.16;43.07;96431.47;4228817;28;5863;-70
2023/08/04 05:46:03;;;;;;;;;;;;;;;23.19;43.25;96433.59;4224833;28;5635;-70
2023/08/04 05:48:06;;;;;;;;;;;;;;;23.21;42.79;96433.31;4226125;28;5645;-70
2023/08/04 05:50:10;;;;;;;;;;;;;;;23.22;43.23;96427.66;4234092;28;5662;-70
2023/08/04 05:52:13;;;;;;;;;;;;;;;23.23;43.05;96431.97;4234178;28;5646;-69
2023/08/04 05:54:16;;;;;;;;;;;;;;;23.21;43.11;96423.31;4234017;28;5646;-69
2023/08/04 05:56:19;;;;;;;;;;;;;;;23.22;42.86;96443.84;4233788;28;5634;-69
2023/08/04 05:58:22;;;;;;;;;;;;;;;23.30;43.18;96441.59;4232549;28;5650;-69
2023/08/04 06:00:24;;;;;;;;;;;;;;;23.39;42.78;96434.53;4232528;28;5743;-70
2023/08/04 06:02:28;;;;;;;;;;;;;;;23.48;42.80;96432.81;4226418;28;5671;-69
2023/08/04 06:04:31;;;;;;;;;;;;;;;23.53;42.47;96438.97;4227107;28;5745;-70
2023/08/04 06:06:34;;;;;;;;;;;;;;;23.60;42.24;96435.97;4232221;27;5674;-69
2023/08/04 06:08:37;;;;;;;;;;;;;;;23.65;42.48;96438.63;4234053;27;5642;-69
2023/08/04 06:10:40;;;;;;;;;;;;;;;23.67;42.23;96428.38;4234283;28;5651;-69
2023/08/04 06:12:42;;;;;;;;;;;;;;;23.69;42.26;96428.88;4233818;28;5764;-69
2023/08/04 06:14:47;;;;;;;;;;;;;;;23.72;42.09;96439.09;4233731;28;5669;-69
2023/08/04 06:16:50;;;;;;;;;;;;;;;23.76;42.07;96434.72;4228680;27;5946;-70
2023/08/04 06:18:54;;;;;;;;;;;;;;;23.78;42.07;96432.56;4226801;28;5873;-69
2023/08/04 06:20:57;;;;;;;;;;;;;;;23.81;42.20;96434.69;4218713;28;5901;-69
2023/08/04 06:23:00;;;;;;;;;;;;;;;23.85;42.10;96442.19;4228796;28;5717;-69
2023/08/04 06:25:03;;;;;;;;;;;;;;;23.87;41.51;96443.53;4232565;28;5653;-69
2023/08/04 06:27:07;;;;;;;;;;;;;;;23.88;42.06;96431.63;4224982;28;5999;-69
2023/08/04 06:29:10;;;;;;;;;;;;;;;23.90;41.92;96442.97;4234055;27;5749;-69
2023/08/04 06:31:13;;;;;;;;;;;;;;;23.91;41.79;96436.47;4233113;28;5833;-69
2023/08/04 06:33:16;;;;;;;;;;;;;;;23.92;41.86;96446.19;4226958;28;5625;-69
2023/08/04 06:35:20;;;;;;;;;;;;;;;23.94;41.37;96435.09;4233775;28;5658;-70
2023/08/04 06:37:23;;;;;;;;;;;;;;;24.00;41.67;96442.03;4233690;27;5649;-70
2023/08/04 06:39:26;;;;;;;;;;;;;;;24.03;41.54;96438.78;4233835;28;5869;-69
2023/08/04 06:41:29;;;;;;;;;;;;;;;24.04;41.21;96443.88;4233574;28;5658;-69
2023/08/04 06:43:32;;;;;;;;;;;;;;;24.04;41.32;96445.78;4233947;27;6295;-69
2023/08/04 06:45:35;;;;;;;;;;;;;;;24.03;41.17;96444.19;4233449;28;5675;-70
2023/08/04 06:47:38;;;;;;;;;;;;;;;24.02;41.51;96443.38;4233694;28;5645;-69
2023/08/04 06:49:42;;;;;;;;;;;;;;;24.02;41.64;96443.38;4223913;28;5733;-69
2023/08/04 06:51:47;;;;;;;;;;;;;;;24.01;41.22;96452.56;4233659;27;5736;-69
2023/08/04 06:53:50;;;;;;;;;;;;;;;24.00;41.05;96445.53;4233509;28;6116;-69
2023/08/04 06:55:53;;;;;;;;;;;;;;;23.99;41.23;96449.31;4233240;28;5730;-69
2023/08/04 06:57:56;;;;;;;;;;;;;;;23.99;41.54;96448.53;4233554;28;5620;-68
2023/08/04 06:59:58;;;;;;;;;;;;;;;24.00;41.19;96444.72;4233553;28;5634;-69
2023/08/04 07:02:02;;;;;;;;;;;;;;;24.00;41.38;96447.44;4225224;28;6305;-69
2023/08/04 07:04:05;;;;;;;;;;;;;;;23.96;41.25;96451.81;4233456;28;5646;-69
2023/08/04 07:06:08;;;;;;;;;;;;;;;23.93;41.08;96447.78;4225518;28;5633;-69
2023/08/04 07:08:12;;;;;;;;;;;;;;;23.91;41.39;96447.28;4233811;28;5704;-69
2023/08/04 07:10:15;;;;;;;;;;;;;;;23.92;41.42;96453.47;4233416;28;5662;-70
2023/08/04 07:12:18;;;;;;;;;;;;;;;23.90;41.69;96450.22;4233320;27;5838;-69
2023/08/04 07:14:21;;;;;;;;;;;;;;;23.90;41.57;96452.94;4234610;28;5662;-69
2023/08/04 07:16:24;;;;;;;;;;;;;;;23.92;41.29;96448.06;4236247;28;5879;-69
2023/08/04 07:18:27;;;;;;;;;;;;;;;23.92;41.47;96459.69;4236563;27;5718;-69
2023/08/04 07:20:31;;;;;;;;;;;;;;;23.93;41.24;96452.38;4236548;28;5634;-70
2023/08/04 07:22:34;;;;;;;;;;;;;;;23.92;41.65;96461.56;4225129;28;5737;-70
2023/08/04 07:24:38;;;;;;;;;;;;;;;23.93;41.42;96455.09;4232569;28;5636;-70
2023/08/04 07:26:41;;;;;;;;;;;;;;;23.91;41.55;96457.28;4236001;28;5718;-70
2023/08/04 07:28:44;;;;;;;;;;;;;;;23.91;41.66;96454.56;4236242;28;5728;-71
2023/08/04 07:30:47;;;;;;;;;;;;;;;23.91;41.86;96462.66;4236230;28;5663;-70
2023/08/04 07:32:50;;;;;;;;;;;;;;;23.92;42.19;96459.69;4236234;27;5119;-70
2023/08/04 07:34:53;;;;;;;;;;;;;;;23.87;41.70;96457.00;4236377;28;5880;-70
2023/08/04 07:36:55;;;;;;;;;;;;;;;23.86;42.03;96466.22;4233663;27;5662;-70
2023/08/04 07:38:59;;;;;;;;;;;;;;;23.86;42.08;96466.22;4233939;28;5741;-70
2023/08/04 07:41:03;;;;;;;;;;;;;;;23.89;42.10;96464.81;4233525;28;5643;-70
2023/08/04 07:43:10;;;;;;;;;;;;;;;23.88;42.15;96457.81;4235980;28;5714;-70
2023/08/04 07:45:13;;;;;;;;;;;;;;;23.89;42.31;96464.81;4235574;28;5741;-70
2023/08/04 07:47:16;;;;;;;;;;;;;;;23.91;42.37;96466.16;4229232;28;5669;-70
2023/08/04 07:49:19;;;;;;;;;;;;;;;23.90;42.05;96461.03;4236018;28;5646;-70
2023/08/04 07:51:23;;;;;;;;;;;;;;;23.89;42.00;96467.53;4236097;28;5671;-70
2023/08/04 07:53:26;;;;;;;;;;;;;;;23.87;42.39;96461.63;4231138;28;6658;-70
2023/08/04 07:55:28;;;;;;;;;;;;;;;23.86;42.12;96462.72;4227731;27;5734;-70
2023/08/04 07:57:33;;;;;;;;;;;;;;;23.86;42.16;96465.41;4220338;28;5722;-70
2023/08/04 07:59:36;;;;;;;;;;;;;;;23.86;42.53;96470.81;4221573;28;5827;-70
2023/08/04 08:01:39;;;;;;;;;;;;;;;23.87;42.38;96472.41;4229932;28;6459;-70
2023/08/04 08:03:42;;;;;;;;;;;;;;;23.88;42.41;96468.63;4230729;28;6226;-70
2023/08/04 08:05:44;;;;;;;;;;;;;;;23.88;42.11;96477.53;4227812;28;5676;-70
2023/08/04 08:07:47;;;;;;;;;;;;;;;23.90;42.10;96472.66;4229947;28;6303;-70
2023/08/04 08:09:50;;;;;;;;;;;;;;;23.90;42.32;96475.38;4226503;27;5682;-70
2023/08/04 08:11:53;;;;;;;;;;;;;;;23.90;42.46;96477.22;4223234;28;5155;-70
2023/08/04 08:13:57;;;;;;;;;;;;;;;23.90;42.21;96485.31;4222224;28;5735;-70
2023/08/04 08:16:07;;;;;;;;;;;;;;;23.88;42.56;96485.63;4221896;28;5104;-70
2023/08/04 08:18:09;;;;;;;;;;;;;;;23.89;42.59;96486.41;4229397;27;5826;-70
2023/08/04 08:20:12;;;;;;;;;;;;;;;23.88;42.19;96482.13;4234260;28;5605;-70
2023/08/04 08:22:15;;;;;;;;;;;;;;;23.89;42.28;96481.81;4235703;28;5665;-70
2023/08/04 08:24:17;;;;;;;;;;;;;;;23.90;42.09;96488.88;4235530;28;5701;-70
2023/08/04 08:26:20;;;;;;;;;;;;;;;23.92;42.20;96491.28;4234998;27;5647;-70
2023/08/04 08:28:22;;;;;;;;;;;;;;;23.92;42.16;96483.19;4235811;27;5646;-70
2023/08/04 08:30:27;;;;;;;;;;;;;;;23.92;42.34;96491.28;4234874;28;5765;-70
2023/08/04 08:32:29;;;;;;;;;;;;;;;23.90;42.10;96493.44;4235646;28;5873;-70
2023/08/04 08:34:32;;;;;;;;;;;;;;;23.91;42.28;96495.06;4235474;28;5658;-70
2023/08/04 08:36:35;;;;;;;;;;;;;;;23.91;42.61;96495.88;4223339;27;5675;-70
2023/08/04 08:38:38;;;;;;;;;;;;;;;23.91;41.99;96497.75;4231672;28;5745;-70
2023/08/04 08:40:41;;;;;;;;;;;;;;;23.90;42.60;96496.13;4235372;28;5659;-70
2023/08/04 08:42:44;;;;;;;;;;;;;;;23.91;42.35;96497.75;4235439;28;5507;-70
2023/08/04 08:44:46;;;;;;;;;;;;;;;23.89;42.38;96492.63;4235311;27;5642;-71
2023/08/04 08:46:51;;;;;;;;;;;;;;;23.88;42.38;96499.13;4235127;28;5650;-70
2023/08/04 08:48:56;;;;;;;;;;;;;;;23.86;42.48;96490.50;4221673;27;6463;-70
2023/08/04 08:51:03;;;;;;;;;;;;;;;23.87;42.31;96494.81;4216863;28;5784;-71
2023/08/04 08:53:10;;;;;;;;;;;;;;;23.89;42.71;96486.41;4224251;28;5814;-70
2023/08/04 08:55:13;;;;;;;;;;;;;;;23.92;42.61;96491.28;4227162;28;5894;-70
2023/08/04 08:57:16;;;;;;;;;;;;;;;23.94;42.60;96505.28;4222258;27;5207;-70
2023/08/04 08:59:18;;;;;;;;;;;;;;;23.93;42.73;96496.38;4233002;27;5654;-70
2023/08/04 09:01:21;;;;;;;;;;;;;;;23.95;42.39;96501.50;4226544;27;5617;-70
2023/08/04 09:03:29;;;;;;;;;;;;;;;23.96;43.07;96498.50;4230476;28;5880;-70
2023/08/04 09:05:32;;;;;;;;;;;;;;;24.00;43.18;96506.81;4226851;28;5642;-70
2023/08/04 09:07:35;;;;;;;;;;;;;;;24.03;43.12;96503.56;4234984;28;5647;-70
2023/08/04 09:09:38;;;;;;;;;;;;;;;24.06;43.39;96497.59;4234812;28;5645;-70
2023/08/04 09:11:41;;;;;;;;;;;;;;;24.08;42.81;96495.41;4234586;28;5647;-70
2023/08/04 09:13:45;;;;;;;;;;;;;;;24.08;42.80;96496.22;4234844;28;5725;-70
2023/08/04 09:15:50;;;;;;;;;;;;;;;24.10;43.16;96493.22;4234633;28;5621;-70
2023/08/04 09:17:53;;;;;;;;;;;;;;;24.11;42.60;96497.53;4234730;27;5654;-70
2023/08/04 09:19:56;;;;;;;;;;;;;;;24.10;42.83;96494.03;4234572;27;5687;-70
2023/08/04 09:21:59;;;;;;;;;;;;;;;24.09;42.67;96502.41;4219002;28;5795;-70
2023/08/04 09:24:03;;;;;;;;;;;;;;;24.10;43.02;96502.13;4234329;28;5833;-71
2023/08/04 09:26:06;;;;;;;;;;;;;;;24.10;42.84;96504.03;4233979;28;6015;-71
2023/08/04 09:28:15;;;;;;;;;;;;;;;24.11;42.89;96502.94;4234659;28;5802;-71
2023/08/04 09:30:19;;;;;;;;;;;;;;;24.12;43.26;96504.53;4234830;28;5737;-70
2023/08/04 09:32:22;;;;;;;;;;;;;;;24.07;42.86;96505.41;4234842;27;5663;-70
2023/08/04 09:34:26;;;;;;;;;;;;;;;24.05;43.54;96502.19;4228750;28;5718;-70
2023/08/04 09:36:31;;;;;;;;;;;;;;;24.06;43.32;96503.81;4232799;28;5736;-71
2023/08/04 09:38:34;;;;;;;;;;;;;;;24.09;43.57;96514.03;4232676;28;5738;-70
2023/08/04 09:40:38;;;;;;;;;;;;;;;24.09;43.63;96507.81;4224548;27;5766;-70
2023/08/04 09:42:41;;;;;;;;;;;;;;;24.09;43.91;96507.81;4233164;28;5783;-70
2023/08/04 09:44:50;;;;;;;;;;;;;;;24.09;43.48;96508.63;4233249;28;6348;-70
2023/08/04 09:46:54;;;;;;;;;;;;;;;24.12;43.56;96515.34;4232712;28;5709;-70
2023/08/04 09:48:59;;;;;;;;;;;;;;;24.13;43.42;96511.56;4228801;27;5645;-68
2023/08/04 09:51:06;;;;;;;;;;;;;;;24.13;43.25;96508.88;4224443;28;5663;-69
2023/08/04 09:53:10;;;;;;;;;;;;;;;24.12;43.22;96515.34;4221814;28;5758;-70
2023/08/04 09:55:13;;;;;;;;;;;;;;;24.16;43.23;96519.09;4232644;28;5864;-70
2023/08/04 09:57:16;;;;;;;;;;;;;;;24.19;43.33;96509.59;4232245;28;5729;-70
2023/08/04 09:59:19;;;;;;;;;;;;;;;24.22;43.23;96506.31;4232478;28;5088;-69
2023/08/04 10:01:22;;;;;;;;;;;;;;;24.26;43.16;96507.38;4232801;27;5635;-70
2023/08/04 10:03:25;;;;;;;;;;;;;;;24.30;43.65;96514.66;4232654;28;5642;-69
2023/08/04 10:05:32;;;;;;;;;;;;;;;24.33;43.60;96513.25;4227842;28;6948;-70
2023/08/04 10:07:37;;;;;;;;;;;;;;;24.35;43.63;96506.50;4225782;28;5668;-69
2023/08/04 10:09:41;;;;;;;;;;;;;;;24.37;43.48;96509.72;4229293;28;5700;-70
2023/08/04 10:11:44;;;;;;;;;;;;;;;24.38;43.28;96505.91;4227759;28;5819;-70
2023/08/04 10:13:50;;;;;;;;;;;;;;;24.36;43.56;96512.72;4226896;28;5746;-70
2023/08/04 10:15:57;;;;;;;;;;;;;;;24.35;43.27;96503.78;4230877;28;5635;-70
2023/08/04 10:18:00;;;;;;;;;;;;;;;24.37;43.43;96503.50;4232884;28;5631;-70
2023/08/04 10:20:05;;;;;;;;;;;;;;;24.36;43.61;96505.41;4232704;28;5732;-70
2023/08/04 10:22:10;;;;;;;;;;;;;;;24.38;43.32;96497.00;4224763;28;5682;-70
2023/08/04 10:24:15;;;;;;;;;;;;;;;24.37;43.29;96504.31;4231627;27;5626;-70
2023/08/04 10:26:19;;;;;;;;;;;;;;;24.41;43.34;96501.03;4225605;28;5857;-69
2023/08/04 10:28:22;;;;;;;;;;;;;;;24.43;43.38;96498.84;4232704;28;5673;-70
2023/08/04 10:30:25;;;;;;;;;;;;;;;24.44;43.16;96498.53;4225268;28;6041;-70
2023/08/04 10:32:48;;;;;;;;;;;;;;;24.43;42.67;96499.63;4232666;28;7299;-70
2023/08/04 10:34:54;;;;;;;;;;;;;;;24.43;42.60;96501.53;4232625;27;5642;-70
2023/08/04 10:37:01;;;;;;;;;;;;;;;24.42;42.92;96497.22;4232247;28;5883;-70
2023/08/04 10:39:28;;;;;;;;;;;;;;;24.39;42.71;96501.31;4232661;28;5740;-70
2023/08/04 10:41:35;;;;;;;;;;;;;;;24.40;43.04;96502.91;4228031;28;5661;-70
2023/08/04 10:43:38;;;;;;;;;;;;;;;24.40;42.98;96492.13;4228231;28;5699;-70
2023/08/04 10:46:01;;;;;;;;;;;;;;;24.33;43.38;96497.06;4228915;28;5741;-69
2023/08/04 10:48:04;;;;;;;;;;;;;;;24.32;43.21;96501.66;4224732;28;5911;-68
2023/08/04 10:50:14;;;;;;;;;;;;;;;24.32;43.71;96492.75;4235037;27;5747;-68
2023/08/04 10:52:21;;;;;;;;;;;;;;;24.33;43.51;96494.34;4235686;28;5729;-70
2023/08/04 10:54:26;;;;;;;;;;;;;;;24.33;43.74;96495.16;4235387;27;5702;-71